sensor_id;sensor_type;location;lat;lon;timestamp;pressure;altitude;pressure_sealevel;temperature;humidity
7474;BME280;3778;42.572;23.426;2023-12-07T17:17:15;95722.78;;;-146.70;100.00
7474;BME280;3778;42.572;23.426;2023-12-07T17:19:42;95685.28;;;-146.70;100.00
7474;BME280;3778;42.572;23.426;2023-12-07T17:22:09;95733.22;;;-146.70;100.00
7474;BME280;3778;42.572;23.426;2023-12-07T17:24:36;95687.34;;;-146.70;100.00
7474;BME280;3778;42.572;23.426;2023-12-07T17:27:03;95697.78;;;-146.70;100.00
7474;BME280;3778;42.572;23.426;2023-12-07T17:29:30;95697.78;;;-146.70;100.00
7474;BME280;3778;42.572;23.426;2023-12-07T17:31:56;95685.28;;;-146.70;100.00
7474;BME280;3778;42.572;23.426;2023-12-07T17:34:25;95699.84;;;-146.70;100.00
7474;BME280;3778;42.572;23.426;2023-12-07T17:36:52;95699.84;;;-146.70;100.00
7474;BME280;3778;42.572;23.426;2023-12-07T17:39:19;95683.19;;;-146.70;100.00
7474;BME280;3778;42.572;23.426;2023-12-07T17:41:45;95685.28;;;-146.70;100.00
7474;BME280;3778;42.572;23.426;2023-12-07T17:44:12;95685.28;;;-146.70;100.00
7474;BME280;3778;42.572;23.426;2023-12-07T17:46:39;95699.84;;;-146.70;100.00
7474;BME280;3778;42.572;23.426;2023-12-07T17:49:06;95731.13;;;-146.70;100.00
7474;BME280;3778;42.572;23.426;2023-12-07T17:51:35;95695.69;;;-146.70;100.00
7474;BME280;3778;42.572;23.426;2023-12-07T17:54:02;95758.22;;;-146.70;100.00
7474;BME280;3778;42.572;23.426;2023-12-07T17:56:29;95685.28;;;-146.70;100.00
7474;BME280;3778;42.572;23.426;2023-12-07T17:58:55;95697.78;;;-146.70;100.00
7474;BME280;3778;42.572;23.426;2023-12-07T18:01:22;95676.94;;;-146.70;100.00
7474;BME280;3778;42.572;23.426;2023-12-07T18:03:50;95749.88;;;-146.70;100.00
7474;BME280;3778;42.572;23.426;2023-12-07T18:06:18;95706.13;;;-146.70;100.00
7474;BME280;3778;42.572;23.426;2023-12-07T18:08:46;95679.00;;;-146.70;100.00
7474;BME280;3778;42.572;23.426;2023-12-07T18:11:18;95658.16;;;-146.70;100.00
7474;BME280;3778;42.572;23.426;2023-12-07T18:13:45;95735.28;;;-146.70;100.00
7474;BME280;3778;42.572;23.426;2023-12-07T18:16:12;95733.22;;;-146.70;100.00
7474;BME280;3778;42.572;23.426;2023-12-07T18:18:39;95706.13;;;-146.70;100.00
7474;BME280;3778;42.572;23.426;2023-12-07T18:21:06;95706.13;;;-146.70;100.00
7474;BME280;3778;42.572;23.426;2023-12-07T18:23:33;95722.78;;;-146.70;100.00
7474;BME280;3778;42.572;23.426;2023-12-07T18:26:01;95720.72;;;-146.70;100.00
7474;BME280;3778;42.572;23.426;2023-12-07T18:28:27;95699.84;;;-146.70;100.00
7474;BME280;3778;42.572;23.426;2023-12-07T18:30:54;95654.00;;;-146.70;100.00
7474;BME280;3778;42.572;23.426;2023-12-07T18:33:21;95704.03;;;-146.70;100.00
7474;BME280;3778;42.572;23.426;2023-12-07T18:35:47;95724.88;;;-146.70;100.00
7474;BME280;3778;42.572;23.426;2023-12-07T18:38:14;95645.66;;;-146.70;100.00
7474;BME280;3778;42.572;23.426;2023-12-07T18:40:41;95722.78;;;-146.70;100.00
7474;BME280;3778;42.572;23.426;2023-12-07T18:43:10;95651.91;;;-146.70;100.00
7474;BME280;3778;42.572;23.426;2023-12-07T18:45:36;95708.19;;;-146.70;100.00
7474;BME280;3778;42.572;23.426;2023-12-07T18:48:04;95706.13;;;-146.70;100.00
7474;BME280;3778;42.572;23.426;2023-12-07T18:50:31;95701.94;;;-146.70;100.00
7474;BME280;3778;42.572;23.426;2023-12-07T18:52:57;95729.03;;;-146.70;100.00
7474;BME280;3778;42.572;23.426;2023-12-07T18:55:24;95672.75;;;-146.70;100.00
7474;BME280;3778;42.572;23.426;2023-12-07T18:57:51;95683.19;;;-146.70;100.00
7474;BME280;3778;42.572;23.426;2023-12-07T19:00:19;95674.84;;;-146.70;100.00
7474;BME280;3778;42.572;23.426;2023-12-07T19:02:46;95695.69;;;-146.70;100.00
7474;BME280;3778;42.572;23.426;2023-12-07T19:05:13;95664.44;;;-146.70;100.00
7474;BME280;3778;42.572;23.426;2023-12-07T19:07:40;95679.00;;;-146.70;100.00
7474;BME280;3778;42.572;23.426;2023-12-07T19:10:07;95691.53;;;-146.70;100.00
7474;BME280;3778;42.572;23.426;2023-12-07T19:12:34;95733.22;;;-146.70;100.00
7474;BME280;3778;42.572;23.426;2023-12-07T19:15:01;95710.28;;;-146.70;100.00
7474;BME280;3778;42.572;23.426;2023-12-07T19:17:29;95687.34;;;-146.70;100.00
7474;BME280;3778;42.572;23.426;2023-12-07T19:19:55;95708.19;;;-146.70;100.00
7474;BME280;3778;42.572;23.426;2023-12-07T19:22:23;95716.53;;;-146.70;100.00
7474;BME280;3778;42.572;23.426;2023-12-07T19:24:50;95687.34;;;-146.70;100.00
7474;BME280;3778;42.572;23.426;2023-12-07T19:27:17;95712.38;;;-146.70;100.00
7474;BME280;3778;42.572;23.426;2023-12-07T19:29:43;95670.69;;;-146.70;100.00
7474;BME280;3778;42.572;23.426;2023-12-07T19:32:11;95643.56;;;-146.70;100.00
7474;BME280;3778;42.572;23.426;2023-12-07T19:34:39;95695.69;;;-146.70;100.00
7474;BME280;3778;42.572;23.426;2023-12-07T19:37:06;95693.59;;;-146.70;100.00
7474;BME280;3778;42.572;23.426;2023-12-07T19:39:33;95729.03;;;-146.70;100.00
7474;BME280;3778;42.572;23.426;2023-12-07T19:42:00;95676.94;;;-146.70;100.00
7474;BME280;3778;42.572;23.426;2023-12-07T19:44:26;95681.09;;;-146.70;100.00
7474;BME280;3778;42.572;23.426;2023-12-07T19:46:54;95739.47;;;-146.70;100.00
7474;BME280;3778;42.572;23.426;2023-12-07T19:49:20;95689.44;;;-146.70;100.00
7474;BME280;3778;42.572;23.426;2023-12-07T19:51:49;95697.78;;;-146.70;100.00
7474;BME280;3778;42.572;23.426;2023-12-07T19:54:15;95676.94;;;-146.70;100.00
7474;BME280;3778;42.572;23.426;2023-12-07T19:56:48;95751.97;;;-146.70;100.00
7474;BME280;3778;42.572;23.426;2023-12-07T19:59:15;95729.03;;;-146.70;100.00
7474;BME280;3778;42.572;23.426;2023-12-07T20:01:42;95733.22;;;-146.70;100.00
7474;BME280;3778;42.572;23.426;2023-12-07T20:04:08;95693.59;;;-146.70;99.99
7474;BME280;3778;42.572;23.426;2023-12-07T20:06:36;95731.13;;;-146.70;100.00
7474;BME280;3778;42.572;23.426;2023-12-07T20:09:04;95724.88;;;-146.70;100.00
7474;BME280;3778;42.572;23.426;2023-12-07T20:11:33;95695.69;;;-146.70;100.00
7474;BME280;3778;42.572;23.426;2023-12-07T20:14:01;95722.78;;;-146.70;100.00
7474;BME280;3778;42.572;23.426;2023-12-07T20:16:27;95751.97;;;-146.70;100.00
7474;BME280;3778;42.572;23.426;2023-12-07T20:18:54;95668.59;;;-146.70;100.00
7474;BME280;3778;42.572;23.426;2023-12-07T20:21:21;95733.22;;;-146.70;100.00
7474;BME280;3778;42.572;23.426;2023-12-07T20:23:47;95699.84;;;-146.70;100.00
7474;BME280;3778;42.572;23.426;2023-12-07T20:26:16;95695.69;;;-146.70;100.00
7474;BME280;3778;42.572;23.426;2023-12-07T20:28:42;95766.56;;;-146.70;99.97
7474;BME280;3778;42.572;23.426;2023-12-07T20:31:11;95737.38;;;-146.70;100.00
7474;BME280;3778;42.572;23.426;2023-12-07T20:33:39;95720.72;;;-146.70;100.00
7474;BME280;3778;42.572;23.426;2023-12-07T20:36:06;95758.22;;;-146.70;100.00
7474;BME280;3778;42.572;23.426;2023-12-07T20:38:33;95687.34;;;-146.70;100.00
7474;BME280;3778;42.572;23.426;2023-12-07T20:41:00;95726.97;;;-146.70;99.89
7474;BME280;3778;42.572;23.426;2023-12-07T20:43:29;95699.84;;;-146.70;99.99
7474;BME280;3778;42.572;23.426;2023-12-07T20:45:56;95745.72;;;-146.70;100.00
7474;BME280;3778;42.572;23.426;2023-12-07T20:48:23;95726.97;;;-146.70;100.00
7474;BME280;3778;42.572;23.426;2023-12-07T20:50:50;95737.38;;;-146.70;100.00
7474;BME280;3778;42.572;23.426;2023-12-07T20:53:16;95679.00;;;-146.70;100.00
7474;BME280;3778;42.572;23.426;2023-12-07T20:55:43;95737.38;;;-146.70;100.00
7474;BME280;3778;42.572;23.426;2023-12-07T20:58:10;95731.13;;;-146.70;100.00
7474;BME280;3778;42.572;23.426;2023-12-07T21:00:38;95681.09;;;-146.70;100.00
7474;BME280;3778;42.572;23.426;2023-12-07T21:03:05;95758.22;;;-146.70;100.00
7474;BME280;3778;42.572;23.426;2023-12-07T21:05:32;95676.94;;;-146.70;100.00
7474;BME280;3778;42.572;23.426;2023-12-07T21:07:59;95716.53;;;-146.70;100.00
7474;BME280;3778;42.572;23.426;2023-12-07T21:10:26;95687.34;;;-146.70;100.00
7474;BME280;3778;42.572;23.426;2023-12-07T21:12:52;95720.72;;;-146.70;100.00
7474;BME280;3778;42.572;23.426;2023-12-07T21:15:22;95699.84;;;-146.70;100.00
7474;BME280;3778;42.572;23.426;2023-12-07T21:17:50;95718.63;;;-146.70;100.00
7474;BME280;3778;42.572;23.426;2023-12-07T21:20:17;95712.38;;;-146.70;100.00
7474;BME280;3778;42.572;23.426;2023-12-07T21:22:44;95720.72;;;-146.70;100.00
7474;BME280;3778;42.572;23.426;2023-12-07T21:25:13;95685.28;;;-146.70;100.00
7474;BME280;3778;42.572;23.426;2023-12-07T21:27:39;95672.75;;;-146.70;100.00
7474;BME280;3778;42.572;23.426;2023-12-07T21:30:07;95660.25;;;-146.70;100.00
7474;BME280;3778;42.572;23.426;2023-12-07T21:32:34;95708.19;;;-146.70;100.00
7474;BME280;3778;42.572;23.426;2023-12-07T21:35:03;95701.94;;;-146.70;100.00
7474;BME280;3778;42.572;23.426;2023-12-07T21:37:30;95689.44;;;-146.70;99.97
7474;BME280;3778;42.572;23.426;2023-12-07T21:39:56;95683.19;;;-146.70;99.64
7474;BME280;3778;42.572;23.426;2023-12-07T21:42:23;95726.97;;;-146.70;99.37
7474;BME280;3778;42.572;23.426;2023-12-07T21:44:50;95670.69;;;-146.70;99.50
7474;BME280;3778;42.572;23.426;2023-12-07T21:47:17;95729.03;;;-146.70;99.47
7474;BME280;3778;42.572;23.426;2023-12-07T21:49:43;95697.78;;;-146.70;99.52
7474;BME280;3778;42.572;23.426;2023-12-07T21:52:11;95726.97;;;-146.70;99.57
7474;BME280;3778;42.572;23.426;2023-12-07T21:54:38;95662.34;;;-146.70;99.37
7474;BME280;3778;42.572;23.426;2023-12-07T21:57:05;95716.53;;;-146.70;99.40
7474;BME280;3778;42.572;23.426;2023-12-07T21:59:31;95683.19;;;-146.70;99.36
7474;BME280;3778;42.572;23.426;2023-12-07T22:01:58;95708.19;;;-146.70;99.38
7474;BME280;3778;42.572;23.426;2023-12-07T22:04:25;95716.53;;;-146.70;99.32
7474;BME280;3778;42.572;23.426;2023-12-07T22:06:52;95683.19;;;-146.70;99.17
7474;BME280;3778;42.572;23.426;2023-12-07T22:09:20;95699.84;;;-146.70;99.11
7474;BME280;3778;42.572;23.426;2023-12-07T22:11:47;95724.88;;;-146.70;98.97
7474;BME280;3778;42.572;23.426;2023-12-07T22:14:13;95708.19;;;-146.70;98.81
7474;BME280;3778;42.572;23.426;2023-12-07T22:16:40;95770.72;;;-146.70;98.75
7474;BME280;3778;42.572;23.426;2023-12-07T22:19:08;95729.03;;;-146.70;98.67
7474;BME280;3778;42.572;23.426;2023-12-07T22:21:34;95704.03;;;-146.70;98.57
7474;BME280;3778;42.572;23.426;2023-12-07T22:24:02;95708.19;;;-146.70;98.54
7474;BME280;3778;42.572;23.426;2023-12-07T22:26:30;95737.38;;;-146.70;98.55
7474;BME280;3778;42.572;23.426;2023-12-07T22:28:57;95743.63;;;-146.70;98.50
7474;BME280;3778;42.572;23.426;2023-12-07T22:31:23;95762.41;;;-146.70;98.35
7474;BME280;3778;42.572;23.426;2023-12-07T22:33:50;95716.53;;;-146.70;98.20
7474;BME280;3778;42.572;23.426;2023-12-07T22:36:17;95764.47;;;-146.70;98.13
7474;BME280;3778;42.572;23.426;2023-12-07T22:38:44;95714.44;;;-146.70;97.94
7474;BME280;3778;42.572;23.426;2023-12-07T22:41:12;95724.88;;;-146.70;97.75
7474;BME280;3778;42.572;23.426;2023-12-07T22:43:40;95729.03;;;-146.70;97.45
7474;BME280;3778;42.572;23.426;2023-12-07T22:46:07;95733.22;;;-146.70;97.07
7474;BME280;3778;42.572;23.426;2023-12-07T22:48:33;95733.22;;;-146.70;96.63
7474;BME280;3778;42.572;23.426;2023-12-07T22:51:00;95683.19;;;-146.70;96.55
7474;BME280;3778;42.572;23.426;2023-12-07T22:53:27;95701.94;;;-146.70;96.29
7474;BME280;3778;42.572;23.426;2023-12-07T22:55:53;95733.22;;;-146.70;96.26
7474;BME280;3778;42.572;23.426;2023-12-07T22:58:20;95741.56;;;-146.70;96.51
7474;BME280;3778;42.572;23.426;2023-12-07T23:00:48;95754.06;;;-146.70;96.51
7474;BME280;3778;42.572;23.426;2023-12-07T23:03:15;95735.28;;;-146.70;96.02
7474;BME280;3778;42.572;23.426;2023-12-07T23:05:42;95745.72;;;-146.70;95.76
7474;BME280;3778;42.572;23.426;2023-12-07T23:08:08;95749.88;;;-146.70;95.43
7474;BME280;3778;42.572;23.426;2023-12-07T23:10:35;95714.44;;;-146.70;95.50
7474;BME280;3778;42.572;23.426;2023-12-07T23:13:02;95699.84;;;-146.70;95.56
7474;BME280;3778;42.572;23.426;2023-12-07T23:15:29;95706.13;;;-146.70;95.62
7474;BME280;3778;42.572;23.426;2023-12-07T23:17:57;95695.69;;;-146.70;95.72
7474;BME280;3778;42.572;23.426;2023-12-07T23:20:24;95683.19;;;-146.70;95.75
7474;BME280;3778;42.572;23.426;2023-12-07T23:22:51;95654.00;;;-146.70;95.73
7474;BME280;3778;42.572;23.426;2023-12-07T23:25:17;95716.53;;;-146.70;95.43
7474;BME280;3778;42.572;23.426;2023-12-07T23:27:44;95701.94;;;-146.70;95.18
7474;BME280;3778;42.572;23.426;2023-12-07T23:30:12;95741.56;;;-146.70;95.19
7474;BME280;3778;42.572;23.426;2023-12-07T23:32:39;95739.47;;;-146.70;95.35
7474;BME280;3778;42.572;23.426;2023-12-07T23:35:08;95704.03;;;-146.70;95.71
7474;BME280;3778;42.572;23.426;2023-12-07T23:37:35;95714.44;;;-146.70;95.63
7474;BME280;3778;42.572;23.426;2023-12-07T23:40:02;95766.56;;;-146.70;95.43
7474;BME280;3778;42.572;23.426;2023-12-07T23:42:29;95751.97;;;-146.70;95.48
7474;BME280;3778;42.572;23.426;2023-12-07T23:44:56;95729.03;;;-146.70;95.54
7474;BME280;3778;42.572;23.426;2023-12-07T23:47:23;95733.22;;;-146.70;95.59
7474;BME280;3778;42.572;23.426;2023-12-07T23:49:50;95726.97;;;-146.70;95.70
7474;BME280;3778;42.572;23.426;2023-12-07T23:52:18;95722.78;;;-146.70;95.93
7474;BME280;3778;42.572;23.426;2023-12-07T23:54:44;95679.00;;;-146.70;95.74
7474;BME280;3778;42.572;23.426;2023-12-07T23:57:12;95839.53;;;-146.70;95.85
7474;BME280;3778;42.572;23.426;2023-12-07T23:59:39;95726.97;;;-146.70;95.70
